createdAt,value
2022-11-28T07:04:10.425Z,1002.97
2022-11-28T07:05:10.312Z,1002.95
2022-11-28T07:06:10.317Z,1002.94
2022-11-28T07:07:13.773Z,1002.99
2022-11-28T07:08:10.443Z,1003
2022-11-28T07:09:10.335Z,1003
2022-11-28T07:10:10.333Z,1003.01
2022-11-28T07:11:10.334Z,1003.01
2022-11-28T07:12:10.328Z,1003.02
2022-11-28T07:13:10.333Z,1003.01
2022-11-28T07:14:10.338Z,1003.01
2022-11-28T07:15:10.482Z,1003.03
2022-11-28T07:16:10.395Z,1003.03
2022-11-28T07:17:10.394Z,1003.02
2022-11-28T07:18:10.366Z,1003.03
2022-11-28T07:19:10.578Z,1003.05
2022-11-28T07:20:11.092Z,1003.03
2022-11-28T07:21:10.472Z,1002.98
2022-11-28T07:22:10.387Z,1002.9
2022-11-28T07:23:10.584Z,1002.94
2022-11-28T07:24:10.400Z,1002.91
2022-11-28T07:25:10.415Z,1002.95
2022-11-28T07:26:10.389Z,1002.93
2022-11-28T07:27:10.404Z,1002.96
2022-11-28T07:28:10.414Z,1002.96
2022-11-28T07:29:10.520Z,1002.98
2022-11-28T07:30:10.440Z,1002.94
2022-11-28T07:31:10.419Z,1002.94
2022-11-28T07:32:10.480Z,1002.96
2022-11-28T07:33:10.420Z,1002.91
2022-11-28T07:34:10.474Z,1002.9
2022-11-28T07:35:11.034Z,1002.88
2022-11-28T07:36:10.587Z,1002.85
2022-11-28T07:37:10.432Z,1002.81
2022-11-28T07:38:10.447Z,1002.78
2022-11-28T07:40:10.467Z,1002.78
2022-11-28T07:41:10.453Z,1002.77
2022-11-28T07:42:10.460Z,1002.74
2022-11-28T07:43:10.479Z,1002.75
2022-11-28T07:44:10.479Z,1002.76
2022-11-28T07:45:10.473Z,1002.71
2022-11-28T07:46:10.535Z,1002.66
2022-11-28T07:47:10.494Z,1002.67
2022-11-28T07:48:10.486Z,1002.66
2022-11-28T07:49:10.492Z,1002.62
2022-11-28T07:50:10.487Z,1002.61
2022-11-28T07:51:10.919Z,1002.58
2022-11-28T07:52:10.516Z,1002.62
2022-11-28T07:53:10.499Z,1002.63
2022-11-28T07:54:10.518Z,1002.6
2022-11-28T07:55:10.513Z,1002.58
2022-11-28T07:56:10.513Z,1002.56
2022-11-28T07:57:12.208Z,1002.55
2022-11-28T07:58:10.524Z,1002.56
2022-11-28T07:59:10.539Z,1002.53
2022-11-28T08:00:10.528Z,1002.57
2022-11-28T08:01:10.545Z,1002.57
2022-11-28T08:02:10.742Z,1002.49
2022-11-28T08:03:10.557Z,1002.54
2022-11-28T08:04:10.613Z,1002.49
2022-11-28T08:05:10.581Z,1002.47
2022-11-28T08:06:10.557Z,1002.5
2022-11-28T08:07:10.563Z,1002.49
2022-11-28T08:08:10.608Z,1002.51
2022-11-28T08:09:10.576Z,1002.5
2022-11-28T08:10:10.907Z,1002.48
2022-11-28T08:11:10.591Z,1002.49
2022-11-28T08:12:10.600Z,1002.51
2022-11-28T08:13:10.631Z,1002.51
2022-11-28T08:14:10.595Z,1002.55
2022-11-28T08:15:10.659Z,1002.55
2022-11-28T08:16:10.692Z,1002.49
2022-11-28T08:17:10.684Z,1002.48
2022-11-28T08:18:10.627Z,1002.46
2022-11-28T08:19:10.752Z,1002.41
2022-11-28T08:20:11.233Z,1002.46
2022-11-28T08:21:10.648Z,1002.44
2022-11-28T08:22:10.640Z,1002.44
2022-11-28T08:23:10.659Z,1002.49
2022-11-28T08:24:10.690Z,1002.53
2022-11-28T08:25:10.651Z,1002.52
2022-11-28T08:26:10.658Z,1002.56
2022-11-28T08:27:10.660Z,1002.54
2022-11-28T08:28:10.674Z,1002.53
